sensor_id;sensor_type;location;lat;lon;timestamp;pressure;altitude;pressure_sealevel;temperature;humidity
5780;BME280;2916;49.798;10.022;2023-04-27T00:01:41;145419.56;;;4.49;75.61
5780;BME280;2916;49.798;10.022;2023-04-27T00:04:12;145431.88;;;4.54;73.13
5780;BME280;2916;49.798;10.022;2023-04-27T00:06:41;145435.56;;;4.55;73.62
5780;BME280;2916;49.798;10.022;2023-04-27T00:09:08;145431.88;;;4.54;74.35
5780;BME280;2916;49.798;10.022;2023-04-27T00:11:35;145429.44;;;4.53;74.23
5780;BME280;2916;49.798;10.022;2023-04-27T00:14:03;145431.88;;;4.54;75.09
5780;BME280;2916;49.798;10.022;2023-04-27T00:16:30;145436.81;;;4.56;74.81
5780;BME280;2916;49.798;10.022;2023-04-27T00:18:57;145441.78;;;4.58;74.35
5780;BME280;2916;49.798;10.022;2023-04-27T00:21:26;145435.56;;;4.55;72.07
5780;BME280;2916;49.798;10.022;2023-04-27T00:23:54;145430.66;;;4.53;71.69
5780;BME280;2916;49.798;10.022;2023-04-27T00:26:21;145419.56;;;4.49;71.50
5780;BME280;2916;49.798;10.022;2023-04-27T00:28:48;145436.81;;;4.56;70.91
5780;BME280;2916;49.798;10.022;2023-04-27T06:40:10;146159.19;;;7.54;71.91
5780;BME280;2916;49.798;10.022;2023-04-27T06:42:37;146185.19;;;7.65;69.74
5780;BME280;2916;49.798;10.022;2023-04-27T06:45:04;146136.91;;;7.45;69.68
5780;BME280;2916;49.798;10.022;2023-04-27T06:47:32;146151.78;;;7.51;69.95
5780;BME280;2916;49.798;10.022;2023-04-27T06:49:58;146190.19;;;7.67;69.92
5780;BME280;2916;49.798;10.022;2023-04-27T06:52:25;146170.38;;;7.58;69.57
5780;BME280;2916;49.798;10.022;2023-04-27T06:54:53;146255.78;;;7.94;70.27
5780;BME280;2916;49.798;10.022;2023-04-27T07:02:23;146635.06;;;9.50;66.38
5780;BME280;2916;49.798;10.022;2023-04-27T07:04:50;146560.66;;;9.19;64.19
5780;BME280;2916;49.798;10.022;2023-04-27T07:07:17;146429.31;;;8.65;64.26
5780;BME280;2916;49.798;10.022;2023-04-27T07:09:44;146439.22;;;8.69;65.19
5780;BME280;2916;49.798;10.022;2023-04-27T07:12:11;146707.00;;;9.79;63.45
5780;BME280;2916;49.798;10.022;2023-04-27T07:14:38;146785.16;;;10.12;61.76
5780;BME280;2916;49.798;10.022;2023-04-27T07:17:04;146912.97;;;10.64;61.14
5780;BME280;2916;49.798;10.022;2023-04-27T07:19:33;147433.41;;;12.78;56.06
5780;BME280;2916;49.798;10.022;2023-04-27T07:22:00;147414.78;;;12.70;56.23
5780;BME280;2916;49.798;10.022;2023-04-27T07:24:28;147117.84;;;11.48;53.63
5780;BME280;2916;49.798;10.022;2023-04-27T07:26:55;146898.13;;;10.58;55.04
5780;BME280;2916;49.798;10.022;2023-04-27T07:29:22;146973.81;;;10.89;53.97
5780;BME280;2916;49.798;10.022;2023-04-27T07:31:53;147003.59;;;11.01;54.85
5780;BME280;2916;49.798;10.022;2023-04-27T07:34:20;147050.78;;;11.21;54.99
5780;BME280;2916;49.798;10.022;2023-04-27T07:36:50;147073.13;;;11.30;53.68
5780;BME280;2916;49.798;10.022;2023-04-27T07:39:19;147115.31;;;11.47;53.45
5780;BME280;2916;49.798;10.022;2023-04-27T07:41:46;147152.56;;;11.63;52.56
5780;BME280;2916;49.798;10.022;2023-04-27T07:44:17;147389.91;;;12.60;52.93
5780;BME280;2916;49.798;10.022;2023-04-27T07:46:46;147288.03;;;12.18;51.71
5780;BME280;2916;49.798;10.022;2023-04-27T07:49:13;147474.41;;;12.95;54.48
5780;BME280;2916;49.798;10.022;2023-04-27T07:51:41;147521.66;;;13.14;51.14
5780;BME280;2916;49.798;10.022;2023-04-27T07:54:10;147608.72;;;13.50;49.85
5780;BME280;2916;49.798;10.022;2023-04-27T07:56:41;147736.81;;;14.03;49.29
5780;BME280;2916;49.798;10.022;2023-04-27T07:59:08;147580.13;;;13.38;49.50
5780;BME280;2916;49.798;10.022;2023-04-27T08:01:35;147638.56;;;13.62;48.04
5780;BME280;2916;49.798;10.022;2023-04-27T08:04:03;147486.84;;;13.00;50.58
5780;BME280;2916;49.798;10.022;2023-04-27T08:06:30;147730.63;;;14.00;49.50
5780;BME280;2916;49.798;10.022;2023-04-27T08:08:57;147967.06;;;14.97;47.22
5780;BME280;2916;49.798;10.022;2023-04-27T08:11:27;147627.38;;;13.58;47.10
5780;BME280;2916;49.798;10.022;2023-04-27T08:13:54;147693.31;;;13.85;47.83
5780;BME280;2916;49.798;10.022;2023-04-27T08:16:21;147605.03;;;13.48;46.94
5780;BME280;2916;49.798;10.022;2023-04-27T08:18:49;147607.50;;;13.49;48.84
5780;BME280;2916;49.798;10.022;2023-04-27T08:21:16;147856.31;;;14.52;47.50
5780;BME280;2916;49.798;10.022;2023-04-27T08:23:43;147593.78;;;13.44;48.61
5780;BME280;2916;49.798;10.022;2023-04-27T08:26:14;147504.25;;;13.07;48.05
5780;BME280;2916;49.798;10.022;2023-04-27T08:28:43;147532.84;;;13.19;47.99
5780;BME280;2916;49.798;10.022;2023-04-27T08:31:10;147406.06;;;12.67;50.26
5780;BME280;2916;49.798;10.022;2023-04-27T08:33:38;147937.19;;;14.85;47.24
5780;BME280;2916;49.798;10.022;2023-04-27T08:38:49;147748.03;;;14.07;45.94
5780;BME280;2916;49.798;10.022;2023-04-27T08:41:19;147728.16;;;13.99;45.10
5780;BME280;2916;49.798;10.022;2023-04-27T08:43:49;147781.59;;;14.21;46.18
5780;BME280;2916;49.798;10.022;2023-04-27T08:46:20;148067.91;;;15.38;45.85
5780;BME280;2916;49.798;10.022;2023-04-27T08:48:49;147720.66;;;13.96;45.23
5780;BME280;2916;49.798;10.022;2023-04-27T08:51:17;147879.94;;;14.61;47.36
5780;BME280;2916;49.798;10.022;2023-04-27T08:53:49;148123.94;;;15.61;43.82
5780;BME280;2916;49.798;10.022;2023-04-27T08:56:18;148108.97;;;15.55;42.73
5780;BME280;2916;49.798;10.022;2023-04-27T08:58:45;147913.56;;;14.75;43.75
5780;BME280;2916;49.798;10.022;2023-04-27T09:01:14;147977.00;;;15.01;45.65
5780;BME280;2916;49.798;10.022;2023-04-27T09:03:42;148066.66;;;15.38;43.94
5780;BME280;2916;49.798;10.022;2023-04-27T09:06:12;148080.34;;;15.43;46.17
5780;BME280;2916;49.798;10.022;2023-04-27T09:08:43;148239.81;;;16.09;44.56
5780;BME280;2916;49.798;10.022;2023-04-27T09:11:11;148211.16;;;15.97;43.39
5780;BME280;2916;49.798;10.022;2023-04-27T09:13:41;148172.56;;;15.81;44.24
5780;BME280;2916;49.798;10.022;2023-04-27T09:16:12;148171.31;;;15.81;45.48
5780;BME280;2916;49.798;10.022;2023-04-27T09:18:42;148067.91;;;15.38;44.05
5780;BME280;2916;49.798;10.022;2023-04-27T09:21:10;148285.91;;;16.28;44.34
5780;BME280;2916;49.798;10.022;2023-04-27T09:23:38;148492.78;;;17.12;42.55
5780;BME280;2916;49.798;10.022;2023-04-27T09:26:07;148320.75;;;16.42;41.90
5780;BME280;2916;49.798;10.022;2023-04-27T09:28:38;148246.06;;;16.11;43.02
5780;BME280;2916;49.798;10.022;2023-04-27T09:31:06;148188.75;;;15.88;43.22
5780;BME280;2916;49.798;10.022;2023-04-27T09:33:36;148146.38;;;15.70;43.36
5780;BME280;2916;49.798;10.022;2023-04-27T09:36:05;148300.81;;;16.34;42.57
5780;BME280;2916;49.798;10.022;2023-04-27T09:38:33;148370.63;;;16.62;42.25
5780;BME280;2916;49.798;10.022;2023-04-27T09:41:01;148547.63;;;17.35;43.37
5780;BME280;2916;49.798;10.022;2023-04-27T09:46:12;148591.28;;;17.53;42.33
5780;BME280;2916;49.798;10.022;2023-04-27T09:48:41;148273.41;;;16.23;41.12
5780;BME280;2916;49.798;10.022;2023-04-27T09:51:08;148664.84;;;17.83;42.11
5780;BME280;2916;49.798;10.022;2023-04-27T09:53:56;148861.94;;;18.63;41.33
5780;BME280;2916;49.798;10.022;2023-04-27T09:56:41;148797.06;;;18.37;39.52
5780;BME280;2916;49.798;10.022;2023-04-27T09:59:35;148904.41;;;18.81;39.83
5780;BME280;2916;49.798;10.022;2023-04-27T10:02:11;148979.28;;;19.11;38.71
5780;BME280;2916;49.798;10.022;2023-04-27T10:05:07;149067.88;;;19.48;38.59
5780;BME280;2916;49.798;10.022;2023-04-27T10:07:40;149104.16;;;19.63;37.41
5780;BME280;2916;49.798;10.022;2023-04-27T10:10:15;148918.16;;;18.86;36.89
5780;BME280;2916;49.798;10.022;2023-04-27T10:12:59;148679.84;;;17.89;38.81
5780;BME280;2916;49.798;10.022;2023-04-27T10:15:28;148440.44;;;16.91;41.01
5780;BME280;2916;49.798;10.022;2023-04-27T10:18:04;148723.47;;;18.07;40.13
5780;BME280;2916;49.798;10.022;2023-04-27T10:20:36;148430.47;;;16.87;40.02
5780;BME280;2916;49.798;10.022;2023-04-27T10:23:03;148688.56;;;17.93;40.41
5780;BME280;2916;49.798;10.022;2023-04-27T10:25:37;148556.34;;;17.38;39.29
5780;BME280;2916;49.798;10.022;2023-04-27T10:28:05;148562.59;;;17.41;39.48
5780;BME280;2916;49.798;10.022;2023-04-27T10:30:36;148477.84;;;17.06;38.99
5780;BME280;2916;49.798;10.022;2023-04-27T10:33:06;148572.59;;;17.45;40.78
5780;BME280;2916;49.798;10.022;2023-04-27T10:35:37;148393.03;;;16.72;40.51
5780;BME280;2916;49.798;10.022;2023-04-27T10:38:06;148490.28;;;17.11;40.84
5780;BME280;2916;49.798;10.022;2023-04-27T10:40:35;148822.03;;;18.47;39.22
5780;BME280;2916;49.798;10.022;2023-04-27T10:43:11;148622.44;;;17.65;38.76
5780;BME280;2916;49.798;10.022;2023-04-27T10:45:38;148568.81;;;17.43;38.45
5780;BME280;2916;49.798;10.022;2023-04-27T10:48:06;148399.34;;;16.74;39.26
5780;BME280;2916;49.798;10.022;2023-04-27T10:50:35;148720.97;;;18.06;41.46
5780;BME280;2916;49.798;10.022;2023-04-27T10:53:04;148787.09;;;18.33;38.49
5780;BME280;2916;49.798;10.022;2023-04-27T10:55:33;148849.44;;;18.58;37.86
5780;BME280;2916;49.798;10.022;2023-04-27T10:58:02;148864.44;;;18.64;38.87
5780;BME280;2916;49.798;10.022;2023-04-27T11:00:32;149061.63;;;19.45;37.80
5780;BME280;2916;49.798;10.022;2023-04-27T11:03:11;148854.47;;;18.60;37.89
5780;BME280;2916;49.798;10.022;2023-04-27T11:05:41;149114.13;;;19.67;37.85
5780;BME280;2916;49.798;10.022;2023-04-27T11:08:11;149240.22;;;20.18;39.12
5780;BME280;2916;49.798;10.022;2023-04-27T11:10:42;149180.31;;;19.94;36.63
5780;BME280;2916;49.798;10.022;2023-04-27T11:13:12;148763.38;;;18.23;39.62
5780;BME280;2916;49.798;10.022;2023-04-27T11:15:48;148672.34;;;17.86;38.84
5780;BME280;2916;49.798;10.022;2023-04-27T11:18:18;148709.78;;;18.01;39.05
5780;BME280;2916;49.798;10.022;2023-04-27T11:20:49;148629.94;;;17.69;38.31
5780;BME280;2916;49.798;10.022;2023-04-27T11:23:25;148622.44;;;17.65;39.29
5780;BME280;2916;49.798;10.022;2023-04-27T11:25:54;148591.28;;;17.53;39.46
5780;BME280;2916;49.798;10.022;2023-04-27T11:28:21;148482.81;;;17.08;40.18
5780;BME280;2916;49.798;10.022;2023-04-27T11:30:55;148497.78;;;17.14;39.61
5780;BME280;2916;49.798;10.022;2023-04-27T11:33:22;148485.28;;;17.09;39.20
5780;BME280;2916;49.798;10.022;2023-04-27T11:35:52;148415.50;;;16.81;39.68
5780;BME280;2916;49.798;10.022;2023-04-27T11:38:20;148532.66;;;17.29;40.44
5780;BME280;2916;49.798;10.022;2023-04-27T11:40:59;148456.63;;;16.98;39.31
5780;BME280;2916;49.798;10.022;2023-04-27T11:43:27;148565.09;;;17.42;39.46
5780;BME280;2916;49.798;10.022;2023-04-27T11:45:55;148506.50;;;17.18;38.68
5780;BME280;2916;49.798;10.022;2023-04-27T11:48:23;148676.06;;;17.87;40.27
5780;BME280;2916;49.798;10.022;2023-04-27T11:50:52;148792.06;;;18.35;39.35
5780;BME280;2916;49.798;10.022;2023-04-27T11:53:29;148960.56;;;19.04;38.33
5780;BME280;2916;49.798;10.022;2023-04-27T11:55:59;149006.75;;;19.23;37.68
5780;BME280;2916;49.798;10.022;2023-04-27T11:58:28;149145.31;;;19.79;37.17
5780;BME280;2916;49.798;10.022;2023-04-27T12:00:56;148856.94;;;18.61;35.72
5780;BME280;2916;49.798;10.022;2023-04-27T12:03:23;148618.66;;;17.64;37.62
5780;BME280;2916;49.798;10.022;2023-04-27T12:05:53;148860.72;;;18.63;37.41
5780;BME280;2916;49.798;10.022;2023-04-27T12:08:20;148925.59;;;18.89;36.92
5780;BME280;2916;49.798;10.022;2023-04-27T12:10:47;148812.06;;;18.43;37.09
5780;BME280;2916;49.798;10.022;2023-04-27T12:13:14;149116.59;;;19.68;38.69
5780;BME280;2916;49.798;10.022;2023-04-27T12:15:42;148964.28;;;19.05;35.68
5780;BME280;2916;49.798;10.022;2023-04-27T12:18:10;148849.44;;;18.58;36.61
5780;BME280;2916;49.798;10.022;2023-04-27T12:20:38;148966.81;;;19.06;36.42
5780;BME280;2916;49.798;10.022;2023-04-27T12:23:07;148475.31;;;17.05;37.03
5780;BME280;2916;49.798;10.022;2023-04-27T12:25:34;148719.75;;;18.05;39.24
5780;BME280;2916;49.798;10.022;2023-04-27T12:28:01;148896.91;;;18.78;38.03
5780;BME280;2916;49.798;10.022;2023-04-27T12:30:29;148834.50;;;18.52;37.76
5780;BME280;2916;49.798;10.022;2023-04-27T12:32:56;148733.44;;;18.11;38.36
5780;BME280;2916;49.798;10.022;2023-04-27T12:35:25;148866.91;;;18.65;38.28
5780;BME280;2916;49.798;10.022;2023-04-27T12:37:56;148712.25;;;18.02;39.37
5780;BME280;2916;49.798;10.022;2023-04-27T12:40:25;148910.66;;;18.83;39.32
5780;BME280;2916;49.798;10.022;2023-04-27T12:42:52;148759.66;;;18.22;37.87
5780;BME280;2916;49.798;10.022;2023-04-27T12:45:20;148639.91;;;17.73;38.14
5780;BME280;2916;49.798;10.022;2023-04-27T12:47:47;148577.53;;;17.47;38.13
5780;BME280;2916;49.798;10.022;2023-04-27T12:52:58;148227.34;;;16.04;39.12
5780;BME280;2916;49.798;10.022;2023-04-27T12:55:26;148253.47;;;16.14;39.87
5780;BME280;2916;49.798;10.022;2023-04-27T12:57:54;148248.53;;;16.12;40.44
5780;BME280;2916;49.798;10.022;2023-04-27T13:00:23;148358.13;;;16.57;40.04
5780;BME280;2916;49.798;10.022;2023-04-27T13:02:51;148445.41;;;16.93;40.05
5780;BME280;2916;49.798;10.022;2023-04-27T13:05:18;148550.09;;;17.36;39.58
5780;BME280;2916;49.798;10.022;2023-04-27T13:07:46;148552.59;;;17.37;39.65
5780;BME280;2916;49.798;10.022;2023-04-27T13:10:14;148634.91;;;17.71;39.62
5780;BME280;2916;49.798;10.022;2023-04-27T13:12:42;148651.16;;;17.77;39.70
5780;BME280;2916;49.798;10.022;2023-04-27T13:15:10;148709.78;;;18.01;39.58
5780;BME280;2916;49.798;10.022;2023-04-27T13:17:37;148702.28;;;17.98;38.43
5780;BME280;2916;49.798;10.022;2023-04-27T13:20:08;148864.44;;;18.64;38.71
5780;BME280;2916;49.798;10.022;2023-04-27T13:22:35;148871.94;;;18.68;39.64
5780;BME280;2916;49.798;10.022;2023-04-27T13:25:05;148657.38;;;17.80;39.10
5780;BME280;2916;49.798;10.022;2023-04-27T13:27:34;148830.72;;;18.51;38.55
5780;BME280;2916;49.798;10.022;2023-04-27T13:30:04;148903.16;;;18.80;38.10
5780;BME280;2916;49.798;10.022;2023-04-27T13:32:31;148990.50;;;19.16;38.13
5780;BME280;2916;49.798;10.022;2023-04-27T13:34:58;148694.78;;;17.95;38.03
5780;BME280;2916;49.798;10.022;2023-04-27T13:37:26;148747.19;;;18.17;39.71
5780;BME280;2916;49.798;10.022;2023-04-27T13:39:53;148981.75;;;19.12;39.60
5780;BME280;2916;49.798;10.022;2023-04-27T13:42:20;148934.34;;;18.93;38.52
5780;BME280;2916;49.798;10.022;2023-04-27T13:44:49;148879.47;;;18.71;38.23
5780;BME280;2916;49.798;10.022;2023-04-27T13:47:18;148661.13;;;17.81;38.37
5780;BME280;2916;49.798;10.022;2023-04-27T13:49:45;148844.47;;;18.56;39.88
5780;BME280;2916;49.798;10.022;2023-04-27T13:52:12;148654.88;;;17.79;38.35
5780;BME280;2916;49.798;10.022;2023-04-27T13:54:40;148604.97;;;17.58;39.12
5780;BME280;2916;49.798;10.022;2023-04-27T13:57:07;148764.66;;;18.24;40.04
5780;BME280;2916;49.798;10.022;2023-04-27T13:59:35;148970.53;;;19.08;40.67
5780;BME280;2916;49.798;10.022;2023-04-27T14:02:02;148969.28;;;19.07;37.82
5780;BME280;2916;49.798;10.022;2023-04-27T14:04:31;148752.16;;;18.19;37.60
5780;BME280;2916;49.798;10.022;2023-04-27T14:06:58;148657.38;;;17.80;37.81
5780;BME280;2916;49.798;10.022;2023-04-27T14:09:26;148599.97;;;17.56;38.09
5780;BME280;2916;49.798;10.022;2023-04-27T14:11:54;148709.78;;;18.01;39.73
5780;BME280;2916;49.798;10.022;2023-04-27T14:14:22;148752.16;;;18.19;39.56
5780;BME280;2916;49.798;10.022;2023-04-27T14:16:49;148911.91;;;18.84;39.60
5780;BME280;2916;49.798;10.022;2023-04-27T14:19:17;148684.81;;;17.91;38.40
5780;BME280;2916;49.798;10.022;2023-04-27T14:21:48;148711.00;;;18.02;41.05
5780;BME280;2916;49.798;10.022;2023-04-27T14:24:15;148886.94;;;18.74;40.96
5780;BME280;2916;49.798;10.022;2023-04-27T14:26:42;148939.34;;;18.95;39.69
5780;BME280;2916;49.798;10.022;2023-04-27T14:29:13;148693.53;;;17.95;38.24
5780;BME280;2916;49.798;10.022;2023-04-27T14:31:40;148664.84;;;17.83;39.49
5780;BME280;2916;49.798;10.022;2023-04-27T14:34:08;148722.22;;;18.06;41.82
5780;BME280;2916;49.798;10.022;2023-04-27T14:36:36;148704.75;;;17.99;38.90
5780;BME280;2916;49.798;10.022;2023-04-27T14:39:04;148639.91;;;17.73;39.55
5780;BME280;2916;49.798;10.022;2023-04-27T14:41:33;148654.88;;;17.79;39.34
5780;BME280;2916;49.798;10.022;2023-04-27T14:44:01;148602.50;;;17.57;40.03
5780;BME280;2916;49.798;10.022;2023-04-27T14:46:29;148631.16;;;17.69;40.22
5780;BME280;2916;49.798;10.022;2023-04-27T14:48:56;148812.06;;;18.43;42.33
5780;BME280;2916;49.798;10.022;2023-04-27T14:51:23;148899.44;;;18.79;40.58
5780;BME280;2916;49.798;10.022;2023-04-27T14:53:51;148925.59;;;18.89;41.46
5780;BME280;2916;49.798;10.022;2023-04-27T14:56:20;148963.03;;;19.05;41.45
5780;BME280;2916;49.798;10.022;2023-04-27T14:58:47;148891.94;;;18.76;39.86
5780;BME280;2916;49.798;10.022;2023-04-27T15:01:15;148812.06;;;18.43;39.25
5780;BME280;2916;49.798;10.022;2023-04-27T15:03:42;148866.91;;;18.65;38.47
5780;BME280;2916;49.798;10.022;2023-04-27T15:06:09;148728.47;;;18.09;38.74
5780;BME280;2916;49.798;10.022;2023-04-27T15:08:37;148657.38;;;17.80;38.92
5780;BME280;2916;49.798;10.022;2023-04-27T15:11:04;148779.59;;;18.30;39.48
5780;BME280;2916;49.798;10.022;2023-04-27T15:13:33;148687.34;;;17.92;39.84
5780;BME280;2916;49.798;10.022;2023-04-27T15:16:00;148592.53;;;17.53;40.23
5780;BME280;2916;49.798;10.022;2023-04-27T15:18:29;148673.59;;;17.86;39.73
5780;BME280;2916;49.798;10.022;2023-04-27T15:20:58;148586.28;;;17.51;41.45
5780;BME280;2916;49.798;10.022;2023-04-27T15:23:26;148480.31;;;17.07;40.48
5780;BME280;2916;49.798;10.022;2023-04-27T15:25:56;148617.44;;;17.63;40.77
5780;BME280;2916;49.798;10.022;2023-04-27T15:28:24;148727.25;;;18.08;41.20
5780;BME280;2916;49.798;10.022;2023-04-27T15:30:52;148687.34;;;17.92;41.03
5780;BME280;2916;49.798;10.022;2023-04-27T15:33:19;148723.47;;;18.07;40.13
5780;BME280;2916;49.798;10.022;2023-04-27T15:35:47;148764.66;;;18.24;40.07
5780;BME280;2916;49.798;10.022;2023-04-27T15:38:14;148703.50;;;17.99;39.82
5780;BME280;2916;49.798;10.022;2023-04-27T15:40:42;148759.66;;;18.22;41.61
5780;BME280;2916;49.798;10.022;2023-04-27T15:43:10;148712.25;;;18.02;40.17
5780;BME280;2916;49.798;10.022;2023-04-27T15:45:37;148562.59;;;17.41;39.66
5780;BME280;2916;49.798;10.022;2023-04-27T15:48:06;148754.69;;;18.20;41.07
5780;BME280;2916;49.798;10.022;2023-04-27T15:50:33;148667.34;;;17.84;41.07
5780;BME280;2916;49.798;10.022;2023-04-27T15:53:01;148613.72;;;17.62;41.01
5780;BME280;2916;49.798;10.022;2023-04-27T15:55:28;148517.72;;;17.23;40.17
5780;BME280;2916;49.798;10.022;2023-04-27T15:57:55;148727.25;;;18.08;43.07
5780;BME280;2916;49.798;10.022;2023-04-27T16:00:22;148728.47;;;18.09;42.65
5780;BME280;2916;49.798;10.022;2023-04-27T16:02:50;148707.28;;;18.00;42.53
5780;BME280;2916;49.798;10.022;2023-04-27T16:05:19;148617.44;;;17.63;40.42
5780;BME280;2916;49.798;10.022;2023-04-27T16:07:46;148673.59;;;17.86;40.32
5780;BME280;2916;49.798;10.022;2023-04-27T16:10:13;148667.34;;;17.84;41.75
5780;BME280;2916;49.798;10.022;2023-04-27T16:12:41;148597.47;;;17.55;40.10
5780;BME280;2916;49.798;10.022;2023-04-27T16:15:09;148572.59;;;17.45;40.63
5780;BME280;2916;49.798;10.022;2023-04-27T16:17:36;148538.91;;;17.31;40.96
5780;BME280;2916;49.798;10.022;2023-04-27T16:20:05;148492.78;;;17.12;40.92
5780;BME280;2916;49.798;10.022;2023-04-27T16:22:35;148502.75;;;17.16;41.78
5780;BME280;2916;49.798;10.022;2023-04-27T16:25:03;148659.91;;;17.81;43.00
5780;BME280;2916;49.798;10.022;2023-04-27T16:27:35;148642.38;;;17.74;41.16
5780;BME280;2916;49.798;10.022;2023-04-27T16:30:02;148572.59;;;17.45;41.06
5780;BME280;2916;49.798;10.022;2023-04-27T16:32:30;148516.47;;;17.22;41.17
5780;BME280;2916;49.798;10.022;2023-04-27T16:34:57;148480.31;;;17.07;41.97
5780;BME280;2916;49.798;10.022;2023-04-27T16:37:24;148523.97;;;17.25;42.04
5780;BME280;2916;49.798;10.022;2023-04-27T16:39:53;148536.41;;;17.30;42.12
5780;BME280;2916;49.798;10.022;2023-04-27T16:42:23;148445.41;;;16.93;41.55
5780;BME280;2916;49.798;10.022;2023-04-27T16:44:51;148390.56;;;16.71;42.23
5780;BME280;2916;49.798;10.022;2023-04-27T16:47:18;148507.75;;;17.18;42.36
5780;BME280;2916;49.798;10.022;2023-04-27T16:49:45;148464.09;;;17.01;41.38
5780;BME280;2916;49.798;10.022;2023-04-27T16:52:12;148496.53;;;17.14;42.44
5780;BME280;2916;49.798;10.022;2023-04-27T16:54:40;148375.59;;;16.64;42.33
5780;BME280;2916;49.798;10.022;2023-04-27T16:57:08;148420.50;;;16.83;41.97
5780;BME280;2916;49.798;10.022;2023-04-27T16:59:35;148420.50;;;16.83;42.62
5780;BME280;2916;49.798;10.022;2023-04-27T17:02:03;148323.28;;;16.43;42.71
5780;BME280;2916;49.798;10.022;2023-04-27T17:04:30;148376.84;;;16.65;43.39
5780;BME280;2916;49.798;10.022;2023-04-27T17:07:00;148344.44;;;16.52;42.59
5780;BME280;2916;49.798;10.022;2023-04-27T17:09:27;148380.59;;;16.66;43.04
5780;BME280;2916;49.798;10.022;2023-04-27T17:11:54;148298.34;;;16.33;43.74
5780;BME280;2916;49.798;10.022;2023-04-27T17:14:23;148290.84;;;16.30;43.82
5780;BME280;2916;49.798;10.022;2023-04-27T17:16:50;148300.81;;;16.34;45.06
5780;BME280;2916;49.798;10.022;2023-04-27T17:19:17;148299.59;;;16.33;43.54
5780;BME280;2916;49.798;10.022;2023-04-27T17:21:44;148322.00;;;16.42;44.73
5780;BME280;2916;49.798;10.022;2023-04-27T17:24:12;148358.13;;;16.57;44.42
5780;BME280;2916;49.798;10.022;2023-04-27T17:26:39;148268.47;;;16.20;45.14
5780;BME280;2916;49.798;10.022;2023-04-27T17:29:06;148236.09;;;16.07;46.01
5780;BME280;2916;49.798;10.022;2023-04-27T17:31:35;148238.56;;;16.08;45.94
5780;BME280;2916;49.798;10.022;2023-04-27T17:34:02;148226.06;;;16.03;47.07
5780;BME280;2916;49.798;10.022;2023-04-27T17:36:30;148108.97;;;15.55;46.83
5780;BME280;2916;49.798;10.022;2023-04-27T17:38:57;148166.31;;;15.79;46.54
5780;BME280;2916;49.798;10.022;2023-04-27T17:41:26;148156.34;;;15.75;46.81
5780;BME280;2916;49.798;10.022;2023-04-27T17:43:54;148106.50;;;15.54;47.13
5780;BME280;2916;49.798;10.022;2023-04-27T17:46:23;148121.47;;;15.60;47.65
5780;BME280;2916;49.798;10.022;2023-04-27T17:48:52;148095.31;;;15.50;47.60
5780;BME280;2916;49.798;10.022;2023-04-27T17:51:19;148120.19;;;15.60;47.98
5780;BME280;2916;49.798;10.022;2023-04-27T17:53:46;148087.81;;;15.46;48.69
5780;BME280;2916;49.798;10.022;2023-04-27T17:56:13;148099.03;;;15.51;48.59
5780;BME280;2916;49.798;10.022;2023-04-27T17:58:41;148061.66;;;15.36;48.76
5780;BME280;2916;49.798;10.022;2023-04-27T18:01:08;148065.44;;;15.37;49.89
5780;BME280;2916;49.798;10.022;2023-04-27T18:03:36;148018.13;;;15.18;49.27
5780;BME280;2916;49.798;10.022;2023-04-27T18:06:05;148048.00;;;15.30;49.53
5780;BME280;2916;49.798;10.022;2023-04-27T18:08:32;147991.97;;;15.07;50.35
5780;BME280;2916;49.798;10.022;2023-04-27T18:10:59;148011.88;;;15.15;49.51
5780;BME280;2916;49.798;10.022;2023-04-27T18:13:27;147945.91;;;14.88;49.90
5780;BME280;2916;49.798;10.022;2023-04-27T18:15:56;147894.88;;;14.67;50.17
5780;BME280;2916;49.798;10.022;2023-04-27T18:18:24;147845.06;;;14.47;50.09
5780;BME280;2916;49.798;10.022;2023-04-27T18:20:51;147906.09;;;14.72;50.88
5780;BME280;2916;49.798;10.022;2023-04-27T18:23:20;147914.81;;;14.76;50.81
5780;BME280;2916;49.798;10.022;2023-04-27T18:25:47;147848.78;;;14.48;51.90
5780;BME280;2916;49.798;10.022;2023-04-27T18:28:15;147837.59;;;14.44;52.38
5780;BME280;2916;49.798;10.022;2023-04-27T18:30:42;147800.28;;;14.29;52.66
5780;BME280;2916;49.798;10.022;2023-04-27T18:33:09;147787.84;;;14.23;52.75
5780;BME280;2916;49.798;10.022;2023-04-27T18:35:37;147709.50;;;13.91;52.72
5780;BME280;2916;49.798;10.022;2023-04-27T18:38:04;147767.94;;;14.15;52.18
5780;BME280;2916;49.798;10.022;2023-04-27T18:40:33;147758.00;;;14.11;52.30
5780;BME280;2916;49.798;10.022;2023-04-27T18:43:01;147750.53;;;14.08;53.03
5780;BME280;2916;49.798;10.022;2023-04-27T18:45:28;147693.31;;;13.85;52.23
5780;BME280;2916;49.798;10.022;2023-04-27T18:47:55;147714.44;;;13.93;52.77
5780;BME280;2916;49.798;10.022;2023-04-27T18:50:22;147711.97;;;13.92;53.33
5780;BME280;2916;49.798;10.022;2023-04-27T18:52:49;147698.25;;;13.87;53.73
5780;BME280;2916;49.798;10.022;2023-04-27T18:55:17;147673.41;;;13.77;54.57
5780;BME280;2916;49.798;10.022;2023-04-27T18:57:46;147621.16;;;13.55;54.05
5780;BME280;2916;49.798;10.022;2023-04-27T19:00:14;147596.31;;;13.45;54.39
5780;BME280;2916;49.798;10.022;2023-04-27T19:02:41;147577.66;;;13.37;55.03
5780;BME280;2916;49.798;10.022;2023-04-27T19:05:09;147484.38;;;12.99;55.06
5780;BME280;2916;49.798;10.022;2023-04-27T19:07:37;147504.25;;;13.07;55.46
5780;BME280;2916;49.798;10.022;2023-04-27T19:10:05;147486.84;;;13.00;54.32
5780;BME280;2916;49.798;10.022;2023-04-27T19:12:33;147490.59;;;13.01;54.79
5780;BME280;2916;49.798;10.022;2023-04-27T19:15:02;147457.00;;;12.88;54.81
5780;BME280;2916;49.798;10.022;2023-04-27T19:17:29;147439.59;;;12.81;55.04
5780;BME280;2916;49.798;10.022;2023-04-27T19:19:56;147440.88;;;12.81;55.28
5780;BME280;2916;49.798;10.022;2023-04-27T19:22:24;147437.13;;;12.80;55.19
5780;BME280;2916;49.798;10.022;2023-04-27T19:24:52;147422.25;;;12.73;56.13
5780;BME280;2916;49.798;10.022;2023-04-27T19:27:19;147409.78;;;12.68;57.14
5780;BME280;2916;49.798;10.022;2023-04-27T19:29:52;147379.97;;;12.56;56.46